Time;durP1;ratioP1;P1;durP2;ratioP2;P2;SDS_P1;SDS_P2;PMS_P1;PMS_P2;Temp;Humidity;BMP_temperature;BMP_pressure;BME280_temperature;BME280_humidity;BME280_pressure;Samples;Min_cycle;Max_cycle;Signal;HPM_P1;HPM_P2
2024/01/31 00:01:44;;;;;;;21.35;12.85;;;;;;;6.12;100.00;103331.03;5093570;28;20020;-77
2024/01/31 00:04:09;;;;;;;24.35;12.90;;;;;;;6.08;100.00;103318.91;5092436;28;20399;-83
2024/01/31 00:06:34;;;;;;;20.65;11.65;;;;;;;6.10;100.00;103325.84;5091779;28;20042;-83
2024/01/31 00:09:00;;;;;;;22.75;11.30;;;;;;;6.05;100.00;103326.78;5089617;28;20456;-78
2024/01/31 00:11:30;;;;;;;23.13;11.23;;;;;;;6.04;100.00;103320.72;5082344;28;20028;-83
2024/01/31 00:13:56;;;;;;;17.27;10.27;;;;;;;6.05;100.00;103326.78;5092683;28;20035;-83
2024/01/31 00:16:22;;;;;;;20.13;11.00;;;;;;;6.01;100.00;103319.88;5091238;28;20561;-78
2024/01/31 00:18:49;;;;;;;20.65;9.90;;;;;;;6.01;100.00;103327.72;5081544;28;20052;-82
2024/01/31 00:21:16;;;;;;;20.48;10.15;;;;;;;6.01;100.00;103336.44;5077185;28;20033;-78
2024/01/31 00:23:41;;;;;;;20.33;9.27;;;;;;;5.99;100.00;103343.41;5074582;28;20024;-78
2024/01/31 00:26:06;;;;;;;21.73;9.77;;;;;;;5.99;100.00;103343.41;5075885;28;20865;-78
2024/01/31 00:28:32;;;;;;;20.02;9.57;;;;;;;5.95;100.00;103347.81;5086972;28;20032;-76
2024/01/31 00:30:57;;;;;;;18.35;8.93;;;;;;;5.95;100.00;103349.56;5077921;28;20542;-77
2024/01/31 00:33:23;;;;;;;21.08;8.55;;;;;;;5.92;100.00;103353.09;5088837;28;20027;-77
2024/01/31 00:35:48;;;;;;;15.48;7.78;;;;;;;5.94;100.00;103355.66;5074661;28;20461;-75
2024/01/31 00:38:13;;;;;;;16.55;7.70;;;;;;;5.93;100.00;103356.56;5091977;28;20015;-82
2024/01/31 00:40:38;;;;;;;20.55;7.72;;;;;;;5.92;100.00;103353.09;5090259;28;20076;-78
2024/01/31 00:43:04;;;;;;;15.15;7.10;;;;;;;5.95;100.00;103362.63;5089855;28;20498;-77
2024/01/31 00:45:30;;;;;;;12.48;6.75;;;;;;;5.93;100.00;103362.66;5077684;28;20036;-77
2024/01/31 00:47:55;;;;;;;17.30;7.45;;;;;;;5.90;100.00;103369.66;5082804;28;20029;-76
2024/01/31 00:50:21;;;;;;;13.60;6.38;;;;;;;5.93;100.00;103377.47;5089795;28;20012;-78
2024/01/31 00:52:46;;;;;;;15.80;6.65;;;;;;;5.90;100.00;103374.88;5085504;28;20028;-77
2024/01/31 00:55:12;;;;;;;17.15;6.95;;;;;;;5.91;100.00;103360.94;5085278;28;20071;-77
2024/01/31 00:57:37;;;;;;;17.92;6.22;;;;;;;5.88;100.00;103360.97;5082640;28;20025;-83
2024/01/31 01:00:08;;;;;;;15.88;6.32;;;;;;;5.88;100.00;103366.19;5069128;28;20724;-77
2024/01/31 01:02:36;;;;;;;14.77;6.35;;;;;;;5.84;100.00;103372.34;5084886;28;20541;-77
2024/01/31 01:05:02;;;;;;;14.43;5.88;;;;;;;5.85;100.00;103367.09;5092123;28;20024;-77
2024/01/31 01:07:27;;;;;;;17.35;5.65;;;;;;;5.84;100.00;103382.78;5092278;28;20139;-77
2024/01/31 01:09:52;;;;;;;16.45;5.28;;;;;;;5.80;100.00;103379.34;5091199;28;20088;-77
2024/01/31 01:12:18;;;;;;;13.45;5.80;;;;;;;5.81;100.00;103377.59;5091276;28;20031;-77
2024/01/31 01:14:43;;;;;;;12.68;5.47;;;;;;;5.80;100.00;103378.50;5075833;28;20024;-77
2024/01/31 01:17:08;;;;;;;15.55;6.10;;;;;;;5.80;100.00;103378.50;5075099;28;20472;-77
2024/01/31 01:19:34;;;;;;;17.33;5.43;;;;;;;5.78;100.00;103380.25;5073181;28;20100;-77
2024/01/31 01:22:00;;;;;;;18.08;5.90;;;;;;;5.77;100.00;103381.16;5069503;28;20060;-77
2024/01/31 01:24:26;;;;;;;14.57;5.40;;;;;;;5.76;100.00;103372.44;5072170;28;20373;-79
2024/01/31 01:26:51;;;;;;;17.15;5.68;;;;;;;5.77;100.00;103373.31;5071133;28;20058;-77
2024/01/31 01:29:19;;;;;;;15.73;5.40;;;;;;;5.77;100.00;103382.00;5087981;28;20400;-77
2024/01/31 01:31:45;;;;;;;14.15;5.43;;;;;;;5.74;100.00;103378.56;5073285;28;20024;-79
2024/01/31 01:34:11;;;;;;;11.93;5.65;;;;;;;5.76;100.00;103382.91;5086136;28;20381;-79
2024/01/31 01:36:37;;;;;;;10.95;5.38;;;;;;;5.76;100.00;103382.91;5080333;28;20035;-79
2024/01/31 01:39:03;;;;;;;15.55;5.68;;;;;;;5.77;100.00;103378.53;5081398;28;20036;-79
2024/01/31 01:41:28;;;;;;;15.43;5.65;;;;;;;5.75;100.00;103385.53;5088834;28;20097;-79
2024/01/31 01:43:53;;;;;;;15.98;5.47;;;;;;;5.72;100.00;103380.34;5086838;28;20028;-80
2024/01/31 01:46:21;;;;;;;15.73;5.78;;;;;;;5.72;100.00;103385.56;5088842;28;20020;-79
2024/01/31 01:48:51;;;;;;;13.65;5.43;;;;;;;5.71;100.00;103391.69;5085836;28;20027;-84
2024/01/31 01:51:18;;;;;;;14.10;5.38;;;;;;;5.71;100.00;103387.31;5079463;28;20048;-79
2024/01/31 01:53:45;;;;;;;11.43;5.13;;;;;;;5.71;100.00;103373.41;5083045;28;20032;-84
2024/01/31 01:56:13;;;;;;;16.63;5.88;;;;;;;5.66;100.00;103382.16;5082130;28;20024;-85
2024/01/31 01:58:39;;;;;;;13.15;5.45;;;;;;;5.68;100.00;103379.53;5086652;28;20017;-76
2024/01/31 02:01:05;;;;;;;16.00;5.93;;;;;;;5.69;100.00;103385.63;5069760;28;20035;-79
2024/01/31 02:03:30;;;;;;;16.98;5.97;;;;;;;5.68;100.00;103378.66;5080113;28;20099;-80
2024/01/31 02:05:59;;;;;;;17.50;6.63;;;;;;;5.68;100.00;103381.28;5090756;28;20051;-79
2024/01/31 02:08:28;;;;;;;12.98;5.50;;;;;;;5.66;100.00;103381.28;5090975;28;20016;-76
2024/01/31 02:10:54;;;;;;;12.95;5.70;;;;;;;5.65;100.00;103377.81;5088362;28;20058;-78
2024/01/31 02:13:19;;;;;;;15.35;6.03;;;;;;;5.61;100.00;103373.53;5088108;28;20028;-77
2024/01/31 02:15:55;;;;;;;15.18;5.72;;;;;;;5.66;100.00;103374.31;5086960;28;20032;-83
2024/01/31 02:18:21;;;;;;;13.98;5.75;;;;;;;5.64;100.00;103378.69;5090615;28;20043;-77
2024/01/31 02:20:48;;;;;;;16.15;5.63;;;;;;;5.60;100.00;103377.00;5091394;28;20376;-83
2024/01/31 02:23:13;;;;;;;15.27;5.80;;;;;;;5.59;100.00;103375.25;5090696;28;20030;-83
2024/01/31 02:25:39;;;;;;;14.50;6.07;;;;;;;5.60;100.00;103371.78;5089176;28;20028;-77
2024/01/31 02:28:04;;;;;;;18.77;6.10;;;;;;;5.59;100.00;103369.16;5087122;28;20023;-77
2024/01/31 02:30:29;;;;;;;16.73;6.68;;;;;;;5.58;100.00;103368.31;5069968;28;20030;-77
2024/01/31 02:32:56;;;;;;;16.67;7.07;;;;;;;5.56;100.00;103370.06;5081138;28;20077;-82
2024/01/31 02:35:22;;;;;;;15.30;7.07;;;;;;;5.56;100.00;103370.06;5086724;28;20510;-77
2024/01/31 02:37:48;;;;;;;19.60;7.30;;;;;;;5.54;100.00;103377.06;5073723;28;20029;-83
2024/01/31 02:40:14;;;;;;;20.35;7.53;;;;;;;5.57;100.00;103374.41;5073834;28;20020;-78
2024/01/31 02:42:40;;;;;;;16.77;6.82;;;;;;;5.57;100.00;103369.19;5077645;28;20387;-78
2024/01/31 02:45:05;;;;;;;20.98;7.43;;;;;;;5.53;100.00;103385.78;5084214;28;20115;-78
2024/01/31 02:47:33;;;;;;;17.27;7.20;;;;;;;5.53;100.00;103383.16;5085128;28;20031;-79
2024/01/31 02:49:59;;;;;;;17.42;7.00;;;;;;;5.53;100.00;103370.13;5078394;28;20073;-78
2024/01/31 02:52:24;;;;;;;18.92;7.10;;;;;;;5.49;100.00;103384.09;5078290;28;20676;-77
2024/01/31 02:54:51;;;;;;;21.30;7.55;;;;;;;5.51;100.00;103368.41;5080323;28;20521;-76
2024/01/31 02:57:17;;;;;;;16.58;7.40;;;;;;;5.48;100.00;103374.53;5087611;28;20027;-77
2024/01/31 02:59:42;;;;;;;17.52;7.75;;;;;;;5.46;100.00;103363.25;5075751;28;20520;-76
2024/01/31 03:02:07;;;;;;;18.98;8.02;;;;;;;5.47;100.00;103354.53;5080224;28;20083;-77
2024/01/31 03:04:33;;;;;;;18.77;8.32;;;;;;;5.47;100.00;103351.91;5090837;28;20089;-77
2024/01/31 03:06:58;;;;;;;17.42;8.07;;;;;;;5.49;100.00;103357.97;5086347;28;20016;-76
2024/01/31 03:09:24;;;;;;;18.63;8.90;;;;;;;5.51;100.00;103351.00;5088257;28;20052;-78
2024/01/31 03:11:49;;;;;;;20.58;8.98;;;;;;;5.50;100.00;103344.03;5092553;28;20028;-76
2024/01/31 03:14:14;;;;;;;18.73;9.35;;;;;;;5.49;100.00;103336.22;5078972;28;20060;-77
2024/01/31 03:16:40;;;;;;;21.40;9.30;;;;;;;5.50;100.00;103344.03;5084493;28;20028;-79
2024/01/31 03:19:06;;;;;;;21.23;10.10;;;;;;;5.49;100.00;103347.53;5096657;28;20105;-79
2024/01/31 03:21:33;;;;;;;18.55;9.38;;;;;;;5.48;100.00;103344.94;5094939;28;20739;-82
2024/01/31 03:23:58;;;;;;;20.15;9.95;;;;;;;5.49;100.00;103344.06;5090719;28;20062;-77
2024/01/31 03:26:24;;;;;;;22.17;9.75;;;;;;;5.48;100.00;103335.38;5083126;28;20020;-77
2024/01/31 03:28:49;;;;;;;20.98;10.05;;;;;;;5.50;100.00;103332.72;5085117;28;20113;-77
2024/01/31 03:31:14;;;;;;;19.00;10.30;;;;;;;5.48;100.00;103337.13;5087656;28;20036;-77
2024/01/31 03:33:40;;;;;;;22.75;10.43;;;;;;;5.47;100.00;103327.56;5088046;28;20055;-78
2024/01/31 03:36:08;;;;;;;25.08;11.55;;;;;;;5.42;100.00;103325.00;5072232;28;20046;-78
2024/01/31 03:38:34;;;;;;;17.88;11.10;;;;;;;5.42;100.00;103338.06;5088259;28;20391;-78
2024/01/31 03:40:59;;;;;;;24.00;12.55;;;;;;;5.44;100.00;103332.81;5089609;28;20078;-78
2024/01/31 03:43:25;;;;;;;24.25;12.43;;;;;;;5.43;100.00;103326.72;5087650;28;20059;-79
2024/01/31 03:45:50;;;;;;;27.02;13.95;;;;;;;5.43;100.00;103326.72;5089802;28;20073;-78
2024/01/31 03:48:15;;;;;;;26.50;13.43;;;;;;;5.45;100.00;103324.09;5083264;28;20035;-83
2024/01/31 03:50:41;;;;;;;26.35;13.23;;;;;;;5.46;100.00;103321.47;5089621;28;20069;-78
2024/01/31 03:53:06;;;;;;;25.33;13.68;;;;;;;5.41;100.00;103317.19;5070722;28;20069;-84
2024/01/31 03:55:33;;;;;;;29.92;15.00;;;;;;;5.39;100.00;103317.22;5076992;28;20123;-84
2024/01/31 03:57:58;;;;;;;22.77;13.57;;;;;;;5.39;100.00;103325.03;5083052;28;20038;-84
2024/01/31 04:00:24;;;;;;;28.88;14.75;;;;;;;5.37;100.00;103326.81;5087831;28;20025;-79
2024/01/31 04:02:49;;;;;;;27.50;14.43;;;;;;;5.35;100.00;103324.22;5087618;28;20043;-79
2024/01/31 04:05:16;;;;;;;26.52;15.10;;;;;;;5.38;100.00;103323.31;5086172;28;20027;-79
2024/01/31 04:07:42;;;;;;;28.10;14.88;;;;;;;5.34;100.00;103329.47;5086113;28;20544;-78
2024/01/31 04:10:08;;;;;;;24.40;14.52;;;;;;;5.32;100.00;103318.19;5084814;28;20090;-78
2024/01/31 04:12:33;;;;;;;30.88;14.35;;;;;;;5.33;100.00;103314.69;5087073;28;20142;-78
2024/01/31 04:14:58;;;;;;;26.60;14.32;;;;;;;5.33;100.00;103312.06;5086878;28;20051;-83
2024/01/31 04:17:24;;;;;;;26.30;14.98;;;;;;;5.37;100.00;103316.38;5078191;28;20500;-78
2024/01/31 04:19:49;;;;;;;30.38;15.35;;;;;;;5.34;100.00;103316.41;5073051;28;20036;-78
2024/01/31 04:22:16;;;;;;;28.67;15.68;;;;;;;5.34;100.00;103316.41;5076871;28;20031;-78
2024/01/31 04:24:42;;;;;;;28.50;16.27;;;;;;;5.36;100.00;103325.09;5082862;28;20031;-78
2024/01/31 04:27:08;;;;;;;27.27;16.05;;;;;;;5.37;100.00;103323.34;5072176;28;20056;-78
2024/01/31 04:29:33;;;;;;;26.13;15.77;;;;;;;5.37;100.00;103326.81;5074233;28;20029;-78
2024/01/31 04:31:59;;;;;;;27.52;16.50;;;;;;;5.31;100.00;103319.94;5087689;28;20054;-83
2024/01/31 04:34:25;;;;;;;29.08;16.15;;;;;;;5.28;100.00;103326.94;5090073;28;20057;-78
2024/01/31 04:36:50;;;;;;;28.23;16.40;;;;;;;5.29;100.00;103328.66;5083745;28;20028;-78
2024/01/31 04:39:16;;;;;;;33.47;17.75;;;;;;;5.28;100.00;103324.31;5090005;28;20024;-78
2024/01/31 04:41:43;;;;;;;31.70;17.35;;;;;;;5.31;100.00;103321.66;5078626;28;20064;-79
2024/01/31 04:44:08;;;;;;;31.27;16.75;;;;;;;5.29;100.00;103315.59;5089876;28;20092;-79
2024/01/31 04:46:34;;;;;;;33.90;18.30;;;;;;;5.26;100.00;103318.25;5085089;28;20021;-79
2024/01/31 04:49:00;;;;;;;37.10;18.73;;;;;;;5.27;100.00;103314.75;5078998;28;20103;-79
2024/01/31 04:51:26;;;;;;;29.73;17.77;;;;;;;5.26;100.00;103310.44;5080946;28;20020;-79
2024/01/31 04:53:51;;;;;;;33.25;18.00;;;;;;;5.28;100.00;103316.50;5089558;28;20375;-83
2024/01/31 04:56:18;;;;;;;27.90;17.50;;;;;;;5.24;100.00;103322.63;5077143;28;20119;-84
2024/01/31 04:58:43;;;;;;;32.80;18.38;;;;;;;5.27;100.00;103314.75;5086163;28;20040;-79
2024/01/31 05:01:09;;;;;;;30.35;17.33;;;;;;;5.31;100.00;103313.84;5073367;28;20016;-79
2024/01/31 05:03:34;;;;;;;28.92;17.70;;;;;;;5.28;100.00;103312.13;5076976;28;20024;-84
2024/01/31 05:05:59;;;;;;;31.02;18.02;;;;;;;5.27;100.00;103317.38;5089067;28;20491;-78
2024/01/31 05:08:29;;;;;;;34.30;18.05;;;;;;;5.30;100.00;103317.34;5091520;28;20079;-77
2024/01/31 05:10:55;;;;;;;29.27;18.27;;;;;;;5.27;100.00;103314.75;5087637;28;20033;-83
2024/01/31 05:13:20;;;;;;;31.42;18.98;;;;;;;5.28;100.00;103313.88;5078133;28;20488;-77
2024/01/31 05:15:46;;;;;;;28.63;18.23;;;;;;;5.23;100.00;103307.84;5089476;28;20697;-77
2024/01/31 05:18:11;;;;;;;34.17;18.48;;;;;;;5.27;100.00;103306.94;5089472;28;20040;-77
2024/01/31 05:20:37;;;;;;;34.05;19.25;;;;;;;5.25;100.00;103308.69;5086095;28;20098;-77
2024/01/31 05:23:03;;;;;;;31.30;18.73;;;;;;;5.23;100.00;103302.63;5074708;28;20032;-83
2024/01/31 05:25:28;;;;;;;31.92;18.75;;;;;;;5.25;100.00;103296.50;5079625;28;20506;-77
2024/01/31 05:27:54;;;;;;;33.83;19.48;;;;;;;5.27;100.00;103299.09;5071395;28;20028;-77
2024/01/31 05:30:20;;;;;;;31.85;18.85;;;;;;;5.28;100.00;103300.84;5083216;28;20052;-77
2024/01/31 05:32:46;;;;;;;30.85;19.15;;;;;;;5.24;100.00;103304.38;5084873;28;20072;-83
2024/01/31 05:35:11;;;;;;;31.58;19.08;;;;;;;5.25;100.00;103301.72;5084096;28;20086;-84
2024/01/31 05:37:37;;;;;;;28.05;19.10;;;;;;;5.28;100.00;103303.44;5090426;28;20118;-78
2024/01/31 05:40:04;;;;;;;34.72;19.58;;;;;;;5.24;100.00;103310.44;5088319;28;20024;-77
2024/01/31 05:42:29;;;;;;;36.00;21.35;;;;;;;5.24;100.00;103304.38;5088121;28;20036;-79
2024/01/31 05:44:56;;;;;;;32.45;20.92;;;;;;;5.23;100.00;103308.72;5090437;28;20019;-84
2024/01/31 05:47:21;;;;;;;29.55;20.35;;;;;;;5.22;100.00;103311.34;5083416;28;20027;-78
2024/01/31 05:49:50;;;;;;;32.97;20.40;;;;;;;5.22;100.00;103311.34;5087829;28;20020;-79
2024/01/31 05:52:15;;;;;;;28.48;20.38;;;;;;;5.21;100.00;103309.63;5070892;28;20020;-78
2024/01/31 05:54:40;;;;;;;34.65;21.85;;;;;;;5.24;100.00;103309.59;5084264;28;20039;-78
2024/01/31 05:57:06;;;;;;;32.13;21.35;;;;;;;5.19;100.00;103314.84;5076092;28;20502;-78
2024/01/31 05:59:32;;;;;;;44.47;23.17;;;;;;;5.24;100.00;103306.97;5085431;28;20039;-78
2024/01/31 06:01:57;;;;;;;36.55;22.40;;;;;;;5.21;100.00;103307.00;5076476;28;20465;-78
2024/01/31 06:04:23;;;;;;;35.88;22.92;;;;;;;5.23;100.00;103307.84;5085902;28;20036;-79
2024/01/31 06:06:48;;;;;;;31.63;21.40;;;;;;;5.21;100.00;103305.28;5083238;28;20031;-79
2024/01/31 06:09:13;;;;;;;39.08;22.30;;;;;;;5.21;100.00;103317.44;5087492;28;20054;-79
2024/01/31 06:11:39;;;;;;;36.78;23.85;;;;;;;5.21;100.00;103315.72;5079213;28;20098;-79
2024/01/31 06:14:04;;;;;;;31.83;22.45;;;;;;;5.20;100.00;103313.97;5079243;28;20558;-85
2024/01/31 06:16:30;;;;;;;35.90;23.83;;;;;;;5.21;100.00;103309.63;5071797;28;20439;-79
2024/01/31 06:18:56;;;;;;;40.00;23.50;;;;;;;5.19;100.00;103308.75;5070716;28;20485;-79
2024/01/31 06:21:21;;;;;;;38.20;24.10;;;;;;;5.18;100.00;103312.25;5077468;28;20034;-79
2024/01/31 06:23:47;;;;;;;37.50;24.60;;;;;;;5.19;100.00;103300.91;5089363;28;20081;-79
2024/01/31 06:26:13;;;;;;;38.58;24.80;;;;;;;5.19;100.00;103296.56;5085468;28;20032;-79
2024/01/31 06:28:38;;;;;;;35.20;23.17;;;;;;;5.19;100.00;103291.34;5087800;28;20027;-79
2024/01/31 06:31:24;;;;;;;38.90;23.42;;;;;;;5.15;100.00;103288.78;5087437;28;20023;-79
2024/01/31 06:33:49;;;;;;;34.05;24.73;;;;;;;5.17;100.00;103292.25;5072220;28;20023;-78
2024/01/31 06:36:15;;;;;;;38.13;25.23;;;;;;;5.17;100.00;103276.59;5088203;28;20024;-79
2024/01/31 06:38:40;;;;;;;35.55;24.05;;;;;;;5.21;100.00;103283.53;5087721;28;20101;-79
2024/01/31 06:41:06;;;;;;;39.67;25.52;;;;;;;5.18;100.00;103278.31;5085298;28;20034;-79
2024/01/31 06:43:31;;;;;;;36.50;25.55;;;;;;;5.16;100.00;103265.28;5086611;28;20042;-79
2024/01/31 06:45:56;;;;;;;38.90;25.92;;;;;;;5.17;100.00;103260.94;5081756;28;20028;-77
2024/01/31 06:48:23;;;;;;;36.92;26.25;;;;;;;5.18;100.00;103253.09;5085422;28;20089;-83
2024/01/31 06:50:49;;;;;;;40.58;26.67;;;;;;;5.18;100.00;103257.44;5085961;28;20043;-78
2024/01/31 06:53:14;;;;;;;39.78;26.75;;;;;;;5.18;100.00;103258.31;5087615;28;20020;-85
2024/01/31 06:55:40;;;;;;;38.38;27.75;;;;;;;5.16;100.00;103260.06;5086754;28;20446;-78
2024/01/31 06:58:06;;;;;;;39.47;27.67;;;;;;;5.16;100.00;103264.41;5073390;28;20032;-84
2024/01/31 07:00:32;;;;;;;44.08;28.77;;;;;;;5.15;100.00;103257.47;5088083;28;20048;-79
2024/01/31 07:02:57;;;;;;;42.80;28.38;;;;;;;5.18;100.00;103260.03;5087510;28;20055;-84
2024/01/31 07:05:23;;;;;;;40.67;29.15;;;;;;;5.19;100.00;103280.03;5082304;28;20464;-79
2024/01/31 07:07:49;;;;;;;43.00;28.83;;;;;;;5.19;100.00;103283.50;5068739;28;20032;-78
2024/01/31 07:10:14;;;;;;;47.22;30.02;;;;;;;5.20;100.00;103294.81;5084693;28;20040;-85
2024/01/31 07:12:40;;;;;;;46.67;29.58;;;;;;;5.17;100.00;103307.91;5069457;28;20465;-85
2024/01/31 07:15:06;;;;;;;45.28;30.42;;;;;;;5.18;100.00;103325.28;5073342;28;20020;-85
2024/01/31 07:17:31;;;;;;;42.22;28.75;;;;;;;5.18;100.00;103325.28;5089948;28;20074;-78
2024/01/31 07:19:57;;;;;;;46.53;30.85;;;;;;;5.17;100.00;103329.66;5088913;28;20012;-79
2024/01/31 07:22:22;;;;;;;47.15;30.58;;;;;;;5.20;100.00;103341.78;5072010;28;20020;-79
2024/01/31 07:24:48;;;;;;;44.03;29.90;;;;;;;5.21;100.00;103348.78;5088808;28;20024;-79
2024/01/31 07:27:13;;;;;;;46.45;30.35;;;;;;;5.21;100.00;103351.38;5080016;28;20115;-80
2024/01/31 07:29:39;;;;;;;46.20;30.42;;;;;;;5.20;100.00;103360.06;5083326;28;20020;-79
2024/01/31 07:32:04;;;;;;;43.90;29.73;;;;;;;5.21;100.00;103361.81;5087170;28;20032;-79
2024/01/31 07:34:30;;;;;;;45.35;29.23;;;;;;;5.22;100.00;103363.53;5085951;28;20020;-84
2024/01/31 07:36:55;;;;;;;41.10;29.70;;;;;;;5.22;100.00;103360.94;5088244;28;20035;-84
2024/01/31 07:39:21;;;;;;;43.45;30.50;;;;;;;5.22;100.00;103364.41;5089029;28;20020;-84
2024/01/31 07:41:46;;;;;;;45.05;30.33;;;;;;;5.23;100.00;103367.88;5087275;28;20032;-83
2024/01/31 07:44:11;;;;;;;44.60;30.67;;;;;;;5.23;100.00;103367.88;5070739;28;20032;-77
2024/01/31 07:46:37;;;;;;;42.80;30.30;;;;;;;5.24;100.00;103367.00;5072308;28;20027;-79
2024/01/31 07:49:06;;;;;;;45.45;30.02;;;;;;;5.21;100.00;103362.69;5082519;28;20033;-79
2024/01/31 07:51:31;;;;;;;46.35;30.58;;;;;;;5.24;100.00;103361.78;5074879;28;20036;-79
2024/01/31 07:53:57;;;;;;;45.28;29.73;;;;;;;5.24;100.00;103367.00;5073414;28;20072;-84
2024/01/31 07:56:22;;;;;;;45.63;30.80;;;;;;;5.26;100.00;103365.25;5080901;28;20495;-79
2024/01/31 07:58:48;;;;;;;51.40;31.42;;;;;;;5.27;100.00;103356.53;5083502;28;20036;-79
2024/01/31 08:01:13;;;;;;;45.72;31.95;;;;;;;5.25;100.00;103353.94;5083759;28;20055;-79
2024/01/31 08:03:41;;;;;;;46.70;31.23;;;;;;;5.25;100.00;103363.50;5075690;28;20093;-79
2024/01/31 08:06:07;;;;;;;48.50;32.75;;;;;;;5.25;100.00;103347.84;5072745;28;20476;-79
2024/01/31 08:08:32;;;;;;;42.90;30.85;;;;;;;5.27;100.00;103351.31;5085464;28;20043;-79
2024/01/31 08:10:59;;;;;;;48.08;32.50;;;;;;;5.31;100.00;103348.63;5088334;28;20464;-79
2024/01/31 08:13:25;;;;;;;48.17;31.60;;;;;;;5.26;100.00;103340.00;5088404;28;20024;-78
2024/01/31 08:15:51;;;;;;;48.47;32.08;;;;;;;5.29;100.00;103344.31;5084492;28;20035;-79
2024/01/31 08:18:17;;;;;;;48.90;31.90;;;;;;;5.29;100.00;103339.97;5090687;28;20020;-78
2024/01/31 08:20:42;;;;;;;48.95;32.47;;;;;;;5.32;100.00;103352.13;5091700;28;20468;-79
2024/01/31 08:23:08;;;;;;;50.03;31.90;;;;;;;5.36;100.00;103351.19;5086803;28;20059;-79
2024/01/31 08:25:33;;;;;;;47.25;30.92;;;;;;;5.34;100.00;103342.50;5096769;28;20035;-85
2024/01/31 08:27:58;;;;;;;46.35;31.38;;;;;;;5.37;100.00;103349.44;5092990;28;20601;-84
2024/01/31 08:30:24;;;;;;;48.10;32.80;;;;;;;5.39;100.00;103351.16;5092905;28;20032;-84
2024/01/31 08:32:49;;;;;;;47.50;32.40;;;;;;;5.39;100.00;103345.06;5084523;28;20032;-84
2024/01/31 08:35:14;;;;;;;49.95;32.75;;;;;;;5.40;100.00;103352.00;5086715;28;20031;-79
2024/01/31 08:37:40;;;;;;;52.05;33.53;;;;;;;5.43;100.00;103333.69;5090177;28;20020;-85
2024/01/31 08:40:08;;;;;;;49.33;32.78;;;;;;;5.45;100.00;103340.63;5073694;28;20028;-85
2024/01/31 08:42:33;;;;;;;52.45;33.20;;;;;;;5.49;100.00;103334.47;5091001;28;20038;-84
2024/01/31 08:44:59;;;;;;;50.28;33.10;;;;;;;5.52;100.00;103325.75;5089818;28;20015;-84
2024/01/31 08:47:24;;;;;;;53.05;33.95;;;;;;;5.54;100.00;103323.97;5090061;28;20387;-84
2024/01/31 08:49:50;;;;;;;51.75;34.28;;;;;;;5.56;100.00;103323.06;5090695;28;20020;-83
2024/01/31 08:52:15;;;;;;;55.70;34.75;;;;;;;5.59;100.00;103322.16;5091386;28;20016;-84
2024/01/31 08:54:41;;;;;;;53.40;34.33;;;;;;;5.63;100.00;103324.75;5090937;28;20399;-84
2024/01/31 08:57:06;;;;;;;54.50;34.17;;;;;;;5.65;100.00;103314.28;5086105;28;20025;-84
2024/01/31 08:59:32;;;;;;;56.47;34.60;;;;;;;5.66;100.00;103311.63;5070603;28;20500;-78
2024/01/31 09:01:57;;;;;;;54.42;34.42;;;;;;;5.63;100.00;103303.84;5073350;28;20020;-84
2024/01/31 09:04:22;;;;;;;53.65;34.65;;;;;;;5.69;100.00;103309.88;5076382;28;20078;-84
2024/01/31 09:06:48;;;;;;;54.80;36.33;;;;;;;5.72;100.00;103297.63;5068860;28;20115;-84
2024/01/31 09:09:13;;;;;;;58.25;35.65;;;;;;;5.75;100.00;103292.34;5070126;28;20049;-84
2024/01/31 09:11:39;;;;;;;55.25;34.67;;;;;;;5.75;100.00;103291.50;5069705;28;20024;-80
2024/01/31 09:14:04;;;;;;;54.30;34.92;;;;;;;5.76;100.00;103288.00;5072128;28;20025;-79
2024/01/31 09:16:30;;;;;;;51.97;34.78;;;;;;;5.79;100.00;103285.34;5085788;28;20028;-79
2024/01/31 09:18:55;;;;;;;54.03;35.92;;;;;;;5.79;100.00;103278.34;5080737;28;20335;-79
2024/01/31 09:21:22;;;;;;;59.63;36.58;;;;;;;5.83;100.00;103268.72;5089869;28;20073;-79
2024/01/31 09:23:48;;;;;;;59.70;36.97;;;;;;;5.86;100.00;103268.69;5091693;28;20024;-79
2024/01/31 09:26:14;;;;;;;55.72;36.40;;;;;;;5.89;100.00;103253.84;5082174;28;20377;-77
2024/01/31 09:28:39;;;;;;;56.92;36.60;;;;;;;5.92;100.00;103260.78;5086508;28;20046;-78
2024/01/31 09:31:05;;;;;;;57.47;37.35;;;;;;;5.96;100.00;103257.22;5076715;28;20024;-84
2024/01/31 09:33:30;;;;;;;53.85;36.60;;;;;;;6.00;100.00;103256.28;5071966;28;20032;-84
2024/01/31 09:35:56;;;;;;;59.40;38.80;;;;;;;5.99;100.00;103251.94;5075379;28;20055;-79
2024/01/31 09:38:25;;;;;;;57.45;37.83;;;;;;;6.05;100.00;103253.63;5092050;28;20055;-79
2024/01/31 09:40:50;;;;;;;55.70;37.63;;;;;;;6.08;100.00;103254.44;5080129;28;20051;-79
2024/01/31 09:43:16;;;;;;;57.75;39.50;;;;;;;6.11;100.00;103249.16;5053132;28;20044;-84
2024/01/31 09:45:42;;;;;;;56.80;37.58;;;;;;;6.17;100.00;103249.03;5087001;28;20435;-79
2024/01/31 09:48:10;;;;;;;55.08;38.15;;;;;;;6.20;100.00;103238.53;5085819;28;20031;-79
2024/01/31 09:50:36;;;;;;;52.95;37.42;;;;;;;6.24;100.00;103240.19;5085021;28;20031;-79
2024/01/31 09:53:02;;;;;;;54.50;37.67;;;;;;;6.31;100.00;103237.47;5079265;28;20024;-80
2024/01/31 09:55:29;;;;;;;51.92;37.08;;;;;;;6.33;100.00;103233.06;5086381;28;20032;-81
2024/01/31 09:57:55;;;;;;;50.67;36.20;;;;;;;6.44;100.00;103232.03;5088501;28;20024;-80
2024/01/31 10:00:21;;;;;;;47.60;34.65;;;;;;;6.44;100.00;103231.16;5077821;28;20073;-81
2024/01/31 10:02:50;;;;;;;46.00;33.75;;;;;;;6.49;100.00;103237.16;5079854;28;20016;-81
2024/01/31 10:05:15;;;;;;;45.03;32.92;;;;;;;6.57;100.00;103240.50;5071088;28;20055;-81
2024/01/31 10:07:40;;;;;;;44.97;31.52;;;;;;;6.59;100.00;103238.72;5070905;28;20029;-82
2024/01/31 10:10:06;;;;;;;40.88;30.60;;;;;;;6.67;100.00;103246.41;5069768;28;20048;-81
2024/01/31 10:12:32;;;;;;;40.25;28.30;;;;;;;6.64;100.00;103244.72;5070732;28;20029;-81
2024/01/31 10:14:57;;;;;;;34.58;26.08;;;;;;;6.66;100.00;103258.63;5062805;28;20020;-81
2024/01/31 10:17:23;;;;;;;32.60;26.55;;;;;;;6.71;100.00;103256.78;5089502;28;20053;-80
2024/01/31 10:19:49;;;;;;;30.88;25.33;;;;;;;6.71;100.00;103255.91;5080718;28;20077;-78
2024/01/31 10:22:16;;;;;;;30.08;24.63;;;;;;;6.69;100.00;103258.56;5069551;28;20673;-84
2024/01/31 10:24:46;;;;;;;29.58;24.63;;;;;;;6.71;100.00;103264.63;5075089;28;20478;-84
2024/01/31 10:27:12;;;;;;;32.17;24.58;;;;;;;6.68;100.00;103272.53;5069359;28;20105;-78
2024/01/31 10:29:37;;;;;;;30.90;23.98;;;;;;;6.72;100.00;103275.94;5077143;28;20074;-79
2024/01/31 10:32:03;;;;;;;29.40;22.83;;;;;;;6.69;100.00;103265.53;5081189;28;20050;-79
2024/01/31 10:34:29;;;;;;;30.05;23.30;;;;;;;6.71;100.00;103274.22;5087852;28;20034;-79
2024/01/31 10:36:55;;;;;;;27.33;22.35;;;;;;;6.73;100.00;103270.69;5086014;28;20073;-84
2024/01/31 10:39:22;;;;;;;27.42;22.15;;;;;;;6.74;100.00;103271.56;5069978;28;20055;-84
2024/01/31 10:41:48;;;;;;;26.70;21.95;;;;;;;6.76;100.00;103270.63;5085585;28;20145;-84
2024/01/31 10:44:14;;;;;;;27.10;21.15;;;;;;;6.76;100.00;103265.41;5084517;28;20024;-85
2024/01/31 10:46:41;;;;;;;21.65;18.70;;;;;;;6.76;100.00;103262.78;5069438;28;20040;-81
2024/01/31 10:49:06;;;;;;;22.23;18.77;;;;;;;6.75;100.00;103268.91;5076725;28;20071;-81
2024/01/31 10:51:33;;;;;;;20.30;17.73;;;;;;;6.76;100.00;103265.41;5088154;28;20496;-78
2024/01/31 10:54:00;;;;;;;20.33;17.33;;;;;;;6.73;100.00;103270.69;5088556;28;20043;-80
2024/01/31 10:56:26;;;;;;;20.40;17.80;;;;;;;6.75;100.00;103263.66;5090602;28;20031;-77
2024/01/31 10:58:51;;;;;;;20.58;16.90;;;;;;;6.71;100.00;103263.75;5089146;28;20047;-79
2024/01/31 11:01:17;;;;;;;21.75;17.90;;;;;;;6.73;100.00;103255.00;5086226;28;20019;-77
2024/01/31 11:03:45;;;;;;;18.48;16.58;;;;;;;6.71;100.00;103255.91;5088918;28;20047;-79
2024/01/31 11:06:11;;;;;;;20.08;17.38;;;;;;;6.72;100.00;103252.41;5087667;28;20401;-81